George S. — A8TJ9 — position and weather

sailwx.info

Track history (hours):
 
Tides and Currents Weather Stations Pressure Air Temp Water Temp Dewpoint Dewpoint Depression Visibility Wind Speed Wind Dir Waves Ship Positions

George S.

Last reported at 2015-Aug-25 13:20 UTC. Time now 2015-Aug-29 12:44 UTC.
Position N 43°34' W 069°58'.

Length 274 m; draft 12.9 m.

Type: Tanker. MMSI: 636014372.

Date/timePositionNaut miles runAvg speedWind from/ knotsBaromVisibWave heightAir tempDewpointWater temp
2015-Aug-25 13:20N 43°34' W 069°58'0 0.6
2015-Aug-25 12:29N 43°34' W 069°58'0 0.4
2015-Aug-25 11:29N 43°34' W 069°57'0 0.3
2015-Aug-25 10:20N 43°34' W 069°57'6 0.8
2015-Aug-25 03:22N 43°30' W 069°51'  
2015-Aug-18 13:07N 37°13' W 030°16'3011.7
2015-Aug-18 10:33N 37°08' W 029°39'2411.9
2015-Aug-18 08:33N 37°08' W 029°09'1312.6
2015-Aug-18 07:30N 37°06' W 028°53'1212.8
2015-Aug-18 06:33N 37°04' W 028°37'1313.1
2015-Aug-18 05:33N 37°03' W 028°21'1312.7
2015-Aug-18 04:33N 37°01' W 028°06'513.1
2015-Aug-18 04:11N 37°00' W 027°60'113.4
2015-Aug-18 04:08N 37°00' W 027°59'813.5
2015-Aug-18 03:33N 36°59' W 027°49'1313.0
2015-Aug-18 02:34N 36°57' W 027°33'1312.9
2015-Aug-18 01:33N 36°56' W 027°17'1312.9
2015-Aug-18 00:33N 36°54' W 027°01'1312.6
2015-Aug-17 23:33N 36°52' W 026°45'1212.3
2015-Aug-17 22:33N 36°52' W 026°30'1312.8
2015-Aug-17 21:33N 36°52' W 026°14'1312.7
2015-Aug-17 20:33N 36°51' W 025°58'1312.9
2015-Aug-17 19:33N 36°51' W 025°42'1312.9
2015-Aug-17 18:33N 36°50' W 025°26'1312.7
2015-Aug-17 17:33N 36°44' W 025°12'1414.5
2015-Aug-17 16:34N 36°41' W 024°54'1515.0
2015-Aug-17 15:34N 36°39' W 024°36'1515.1
2015-Aug-17 14:34N 36°38' W 024°17'1514.7
2015-Aug-17 13:33N 36°36' W 023°59'1312.8
2015-Aug-17 12:33N 36°34' W 023°43'1313.0
2015-Aug-17 11:31N 36°34' W 023°26'1313.0
2015-Aug-17 10:33N 36°34' W 023°11'1312.5
2015-Aug-17 09:32N 36°34' W 022°55'1212.0
2015-Aug-17 08:32N 36°34' W 022°40'1212.4
2015-Aug-17 07:32N 36°33' W 022°25'1212.4
2015-Aug-17 06:33N 36°34' W 022°10'1312.8
2015-Aug-17 05:33N 36°33' W 021°54'1512.9
2015-Aug-17 04:25N 36°33' W 021°35'1113.0
2015-Aug-17 03:32N 36°32' W 021°21'1312.8
2015-Aug-17 02:29N 36°31' W 021°04'1212.6
2015-Aug-17 01:33N 36°31' W 020°50'1612.7
2015-Aug-17 00:18N 36°30' W 020°30'  
Track history (hours):
 
Tides and Currents Weather Stations Pressure Air Temp Water Temp Dewpoint Dewpoint Depression Visibility Wind Speed Wind Dir Waves Ship Positions

George S.

Last reported at 2015-Aug-25 13:20 UTC. Time now 2015-Aug-29 12:44 UTC.
Position N 43°34' W 069°58'.

Length 274 m; draft 12.9 m.

Type: Tanker. MMSI: 636014372.

Date/timePositionNaut miles runAvg speedWind from/ knotsBaromVisibWave heightAir tempDewpointWater temp
2015-Aug-25 13:20N 43°34' W 069°58'0 0.6
2015-Aug-25 12:29N 43°34' W 069°58'0 0.4
2015-Aug-25 11:29N 43°34' W 069°57'0 0.3
2015-Aug-25 10:20N 43°34' W 069°57'6 0.8
2015-Aug-25 03:22N 43°30' W 069°51'  
2015-Aug-18 13:07N 37°13' W 030°16'3011.7
2015-Aug-18 10:33N 37°08' W 029°39'2411.9
2015-Aug-18 08:33N 37°08' W 029°09'1312.6
2015-Aug-18 07:30N 37°06' W 028°53'1212.8
2015-Aug-18 06:33N 37°04' W 028°37'1313.1
2015-Aug-18 05:33N 37°03' W 028°21'1312.7
2015-Aug-18 04:33N 37°01' W 028°06'513.1
2015-Aug-18 04:11N 37°00' W 027°60'113.4
2015-Aug-18 04:08N 37°00' W 027°59'813.5
2015-Aug-18 03:33N 36°59' W 027°49'1313.0
2015-Aug-18 02:34N 36°57' W 027°33'1312.9
2015-Aug-18 01:33N 36°56' W 027°17'1312.9
2015-Aug-18 00:33N 36°54' W 027°01'1312.6
2015-Aug-17 23:33N 36°52' W 026°45'1212.3
2015-Aug-17 22:33N 36°52' W 026°30'1312.8
2015-Aug-17 21:33N 36°52' W 026°14'1312.7
2015-Aug-17 20:33N 36°51' W 025°58'1312.9
2015-Aug-17 19:33N 36°51' W 025°42'1312.9
2015-Aug-17 18:33N 36°50' W 025°26'1312.7
2015-Aug-17 17:33N 36°44' W 025°12'1414.5
2015-Aug-17 16:34N 36°41' W 024°54'1515.0
2015-Aug-17 15:34N 36°39' W 024°36'1515.1
2015-Aug-17 14:34N 36°38' W 024°17'1514.7
2015-Aug-17 13:33N 36°36' W 023°59'1312.8
2015-Aug-17 12:33N 36°34' W 023°43'1313.0
2015-Aug-17 11:31N 36°34' W 023°26'1313.0
2015-Aug-17 10:33N 36°34' W 023°11'1312.5
2015-Aug-17 09:32N 36°34' W 022°55'1212.0
2015-Aug-17 08:32N 36°34' W 022°40'1212.4
2015-Aug-17 07:32N 36°33' W 022°25'1212.4
2015-Aug-17 06:33N 36°34' W 022°10'1312.8
2015-Aug-17 05:33N 36°33' W 021°54'1512.9
2015-Aug-17 04:25N 36°33' W 021°35'1113.0
2015-Aug-17 03:32N 36°32' W 021°21'1312.8
2015-Aug-17 02:29N 36°31' W 021°04'1212.6
2015-Aug-17 01:33N 36°31' W 020°50'1612.7
2015-Aug-17 00:18N 36°30' W 020°30'  

Dump ship's entire track history